KALO/ALO METAR and TAF weather

Enter ICAO airport designator
Station Type Date Time Source
KALO METAR 2020/10/22 02:54 UTC NOAA

KALO 220254Z AUTO 07010KT 10SM OVC050 07/03 A3014 RMK AO2 SLP213 60000 T00670028 53001


Station Type Date Time Source
KALO Decoded METAR 2020/10/22 02:54 UTC NOAA

WATERLOO MUNICIPAL AIRPORT, IA, United States (KALO) 42-33N 92-24W 264M
Oct 21, 2020 - 10:54 PM EDT / 2020.10.22 0254 UTC
Wind: from the ENE (070 degrees) at 12 MPH (10 KT):0
Visibility: 10 mile(s):0
Sky conditions: overcast
Temperature: 44.1 F (6.7 C)
Dew Point: 37.0 F (2.8 C)
Relative Humidity: 76%
Pressure (altimeter): 30.14 in. Hg (1020 hPa)
Pressure tendency: 0.00 inches (0.1 hPa) higher than three hours ago
ob: KALO 220254Z AUTO 07010KT 10SM OVC050 07/03 A3014 RMK AO2 SLP213 60000 T00670028 53001
cycle: 3

Station Type Date Time Source
KALO TAF 2020/10/21 20:36 UTC NOAA

TAF
AMD KALO 211934Z 2120/2218 VRB04KT P6SM FEW025 BKN100
FM220000 06005KT P6SM VCSH OVC060
FM220500 08008KT 6SM -SHRA BR OVC030
FM220900 09010KT 6SM -SHRA BR OVC008
FM221600 11011KT 2SM SHRA BR OVC008
FM221700 11012G20KT 1 1/2SM -SHRA BR OVC008

Example: see airport list